الصفحة الرئيسية
METAR-TAF:

METAR-TAF

مطار :

إيركوتسك, روسيا

دائرة عرض: 52-16N, خط طول: 104-19E, ارتفاع: 513 متر

مراقبة الطقس الحالي

تاريخ ووقت الإصدار 10 دقيقة قبل الساعة 01:00UTC
ريح 4 عقدة من الغرب/الشمال الغربي, الاتجاه يتراوح بين الغرب/الجنوب الغربي و الشمال/الشمال الغربي
درجة الحرارة 19°درجة مئوية
الرطوبة 64%
ضغط 1008 hPa
الرؤية 10 كم أو أكثر
الغيوم لا تقل 1500 م ولا وجود لمزنة ركامية السحاب الأسود

METAR: UIII 240100Z 29002MPS 250V330 CAVOK 19/12 Q1008 R30/CLRD60 NOSIG RMK QFE712/0949

زمن: 09:10 (01:10 UTC)

توقعات

تاريخ ووقت الإصدار 2ساعات و 10 دقيقة قبل الساعة 23:00UTC
التوقعات صالحة من24 الساعة 00 UTC إلى 24 الساعة 24 UTC
ريح 2 عقدةمن اتجاهات متغيرة
الرؤية 10 كم أو أكثر
أصبح
من 24 الساعة 01 UTC إلى 24 الساعة 03 UTC
ريح 12 عقدة من الغرب/الشمال الغربي
غيوم متفرقة على ارتفاع 2000 قدم, مزنة ركامية.
مؤقت
من 24 الساعة 03 UTC إلى 24 الساعة 18 UTC
ريح 29 عقدةمن اتجاهات متغيرة
عاصفة رعدية, مطر خفيف

TAF: UIII 232300Z 2400/2424 VRB01MPS 9999 NSC BECMG 2401/2403 30006MPS SCT020CB TEMPO 2403/2418 VRB15MPS -TSRA

أرصاد الطقس والتوقعات من أكثر من 4000 مطار (تقارير الطقس للمطار METAR والتنبؤ بالطقس بالمطارTAF).

المحطات المتاحة هي النقط الصفراء والحمراء على الخريطة.

حرك المؤشر فوق النقطة لمعرفة اسم المحطة.

ثم انقر لمعرفة أرصاد وتوقعات الطقس.

لتغيير الخارطة: اضغط على الأزرار الخضراء مع رمز الصليب الأسود للتكبير. على الزر الأخضر مع شرطة للتصغير، أو على الأسهم الخضراء للخرائط المجاورة.


METAR-TAF: